sensor_id;sensor_type;location;lat;lon;timestamp;pressure;altitude;pressure_sealevel;temperature;humidity
54248;BME280;40161;39.768;2.722;2022-08-04T00:00:44;101092.06;;;26.86;52.48
54248;BME280;40161;39.768;2.722;2022-08-04T00:03:19;101076.59;;;26.82;52.10
54248;BME280;40161;39.768;2.722;2022-08-04T00:09:38;101073.88;;;27.15;51.30
54248;BME280;40161;39.768;2.722;2022-08-04T00:15:27;101070.28;;;27.14;50.50
54248;BME280;40161;39.768;2.722;2022-08-04T00:17:57;101073.28;;;27.02;49.93
54248;BME280;40161;39.768;2.722;2022-08-04T00:23:45;101069.84;;;27.16;50.97
54248;BME280;40161;39.768;2.722;2022-08-04T00:29:39;101083.59;;;27.23;50.85
54248;BME280;40161;39.768;2.722;2022-08-04T00:32:07;101054.34;;;26.93;51.47
54248;BME280;40161;39.768;2.722;2022-08-04T00:34:33;101051.22;;;26.91;48.00
54248;BME280;40161;39.768;2.722;2022-08-04T00:43:07;101049.56;;;26.57;50.99
54248;BME280;40161;39.768;2.722;2022-08-04T00:54:01;101038.00;;;26.64;51.23
54248;BME280;40161;39.768;2.722;2022-08-04T01:02:05;101020.88;;;26.03;52.24
54248;BME280;40161;39.768;2.722;2022-08-04T01:07:41;100976.84;;;26.09;51.49
54248;BME280;40161;39.768;2.722;2022-08-04T01:13:30;101013.28;;;26.59;49.97
54248;BME280;40161;39.768;2.722;2022-08-04T01:16:05;100986.22;;;26.34;50.05
54248;BME280;40161;39.768;2.722;2022-08-04T01:32:30;100992.00;;;26.21;49.79
54248;BME280;40161;39.768;2.722;2022-08-04T01:44:42;100987.72;;;25.30;52.30
54248;BME280;40161;39.768;2.722;2022-08-04T01:47:13;100979.47;;;25.94;50.73
54248;BME280;40161;39.768;2.722;2022-08-04T01:53:03;100966.06;;;26.17;50.63
54248;BME280;40161;39.768;2.722;2022-08-04T01:58:50;100994.16;;;25.89;49.60
54248;BME280;40161;39.768;2.722;2022-08-04T02:01:20;101001.28;;;25.31;51.44
54248;BME280;40161;39.768;2.722;2022-08-04T02:03:45;100988.97;;;25.78;50.78
54248;BME280;40161;39.768;2.722;2022-08-04T02:09:32;100982.06;;;25.61;50.70
54248;BME280;40161;39.768;2.722;2022-08-04T02:20:08;100994.50;;;25.91;49.15
54248;BME280;40161;39.768;2.722;2022-08-04T02:22:46;100986.19;;;25.38;51.24
54248;BME280;40161;39.768;2.722;2022-08-04T02:25:21;100994.06;;;25.62;51.25
54248;BME280;40161;39.768;2.722;2022-08-04T02:33:45;100996.22;;;25.48;51.80
54248;BME280;40161;39.768;2.722;2022-08-04T02:39:36;100947.41;;;25.64;50.81
54248;BME280;40161;39.768;2.722;2022-08-04T02:45:24;101000.09;;;26.00;50.46
54248;BME280;40161;39.768;2.722;2022-08-04T02:54:54;100997.91;;;25.86;49.51
54248;BME280;40161;39.768;2.722;2022-08-04T02:57:23;100944.59;;;25.64;49.07
54248;BME280;40161;39.768;2.722;2022-08-04T03:18:06;100968.41;;;25.10;52.66
54248;BME280;40161;39.768;2.722;2022-08-04T03:41:00;101015.72;;;26.01;50.67
54248;BME280;40161;39.768;2.722;2022-08-04T03:55:40;101008.06;;;24.90;52.37
54248;BME280;40161;39.768;2.722;2022-08-04T04:06:45;101001.63;;;25.83;51.35
54248;BME280;40161;39.768;2.722;2022-08-04T04:18:46;101007.34;;;25.70;50.70
54248;BME280;40161;39.768;2.722;2022-08-04T04:21:44;100982.34;;;25.63;50.37
54248;BME280;40161;39.768;2.722;2022-08-04T04:38:38;101031.44;;;25.80;51.23
54248;BME280;40161;39.768;2.722;2022-08-04T04:41:29;101035.06;;;25.81;50.66
54248;BME280;40161;39.768;2.722;2022-08-04T04:49:47;101023.06;;;25.99;49.64
54248;BME280;40161;39.768;2.722;2022-08-04T04:52:34;101045.28;;;26.15;49.03
54248;BME280;40161;39.768;2.722;2022-08-04T04:55:21;101046.97;;;25.54;49.53
54248;BME280;40161;39.768;2.722;2022-08-04T04:57:55;101046.78;;;24.38;52.25
54248;BME280;40161;39.768;2.722;2022-08-04T05:01:07;101047.75;;;24.57;51.47
54248;BME280;40161;39.768;2.722;2022-08-04T05:09:02;101060.06;;;25.97;49.43
54248;BME280;40161;39.768;2.722;2022-08-04T05:14:08;101051.34;;;25.95;49.09
54248;BME280;40161;39.768;2.722;2022-08-04T05:16:48;101051.22;;;26.17;48.73
54248;BME280;40161;39.768;2.722;2022-08-04T05:19:37;101048.72;;;26.19;48.50
54248;BME280;40161;39.768;2.722;2022-08-04T05:22:14;101047.97;;;25.78;47.89
54248;BME280;40161;39.768;2.722;2022-08-04T05:24:46;101040.56;;;25.53;46.82
54248;BME280;40161;39.768;2.722;2022-08-04T05:27:18;101061.59;;;25.49;49.46
54248;BME280;40161;39.768;2.722;2022-08-04T05:29:51;101058.94;;;25.14;50.79
54248;BME280;40161;39.768;2.722;2022-08-04T05:32:23;101050.09;;;25.25;50.57
54248;BME280;40161;39.768;2.722;2022-08-04T05:35:10;101061.44;;;25.84;49.80
54248;BME280;40161;39.768;2.722;2022-08-04T05:37:39;101059.94;;;26.01;49.48
54248;BME280;40161;39.768;2.722;2022-08-04T05:40:06;101014.00;;;25.86;49.25
54248;BME280;40161;39.768;2.722;2022-08-04T05:42:37;101040.91;;;26.14;49.35
54248;BME280;40161;39.768;2.722;2022-08-04T05:45:03;101061.06;;;26.13;47.95
54248;BME280;40161;39.768;2.722;2022-08-04T05:47:31;101069.19;;;26.20;49.19
54248;BME280;40161;39.768;2.722;2022-08-04T05:49:59;101067.19;;;26.30;48.48
54248;BME280;40161;39.768;2.722;2022-08-04T05:52:26;101064.84;;;25.78;47.78
54248;BME280;40161;39.768;2.722;2022-08-04T05:54:52;101068.88;;;26.09;47.76
54248;BME280;40161;39.768;2.722;2022-08-04T05:57:19;101067.19;;;25.40;48.90
54248;BME280;40161;39.768;2.722;2022-08-04T05:59:45;101079.09;;;25.84;49.37
54248;BME280;40161;39.768;2.722;2022-08-04T06:02:13;101065.56;;;26.10;48.55
54248;BME280;40161;39.768;2.722;2022-08-04T06:04:45;101065.75;;;26.25;49.03
54248;BME280;40161;39.768;2.722;2022-08-04T06:07:13;101065.31;;;26.26;48.87
54248;BME280;40161;39.768;2.722;2022-08-04T06:09:40;101076.28;;;25.53;49.73
54248;BME280;40161;39.768;2.722;2022-08-04T06:12:10;101072.69;;;25.52;49.71
54248;BME280;40161;39.768;2.722;2022-08-04T06:14:39;101060.56;;;25.96;50.31
54248;BME280;40161;39.768;2.722;2022-08-04T06:17:07;101068.56;;;26.16;49.60
54248;BME280;40161;39.768;2.722;2022-08-04T06:19:34;101063.88;;;26.22;49.80
54248;BME280;40161;39.768;2.722;2022-08-04T06:22:03;101067.97;;;26.30;49.58
54248;BME280;40161;39.768;2.722;2022-08-04T06:24:30;101067.94;;;26.21;48.07
54248;BME280;40161;39.768;2.722;2022-08-04T06:26:57;101074.28;;;25.53;50.86
54248;BME280;40161;39.768;2.722;2022-08-04T06:29:24;101069.44;;;25.85;50.54
54248;BME280;40161;39.768;2.722;2022-08-04T06:31:56;101023.19;;;25.46;50.20
54248;BME280;40161;39.768;2.722;2022-08-04T06:34:25;101073.66;;;25.58;51.04
54248;BME280;40161;39.768;2.722;2022-08-04T06:36:52;101079.22;;;25.80;51.76
54248;BME280;40161;39.768;2.722;2022-08-04T06:39:19;101072.91;;;26.08;50.72
54248;BME280;40161;39.768;2.722;2022-08-04T06:41:45;101074.03;;;26.28;50.66
54248;BME280;40161;39.768;2.722;2022-08-04T06:44:13;101082.19;;;26.45;49.99
54248;BME280;40161;39.768;2.722;2022-08-04T06:46:40;101076.28;;;26.52;49.64
54248;BME280;40161;39.768;2.722;2022-08-04T06:49:08;101073.31;;;26.56;48.28
54248;BME280;40161;39.768;2.722;2022-08-04T06:51:36;101061.22;;;26.46;47.42
54248;BME280;40161;39.768;2.722;2022-08-04T06:54:03;101069.41;;;26.62;48.36
54248;BME280;40161;39.768;2.722;2022-08-04T06:56:30;101059.69;;;26.63;48.25
54248;BME280;40161;39.768;2.722;2022-08-04T06:58:57;101061.56;;;26.75;48.31
54248;BME280;40161;39.768;2.722;2022-08-04T07:01:25;101071.91;;;26.88;48.67
54248;BME280;40161;39.768;2.722;2022-08-04T07:03:52;101078.31;;;26.88;48.84
54248;BME280;40161;39.768;2.722;2022-08-04T07:06:20;101075.94;;;26.96;49.08
54248;BME280;40161;39.768;2.722;2022-08-04T07:08:47;101067.50;;;26.96;49.75
54248;BME280;40161;39.768;2.722;2022-08-04T07:11:13;101071.69;;;27.01;47.68
54248;BME280;40161;39.768;2.722;2022-08-04T07:13:39;101038.13;;;26.88;48.68
54248;BME280;40161;39.768;2.722;2022-08-04T07:16:06;101066.06;;;27.10;47.95
54248;BME280;40161;39.768;2.722;2022-08-04T07:18:32;101061.69;;;27.09;44.56
54248;BME280;40161;39.768;2.722;2022-08-04T07:20:58;101081.81;;;27.44;42.25
54248;BME280;40161;39.768;2.722;2022-08-04T07:23:25;101071.06;;;27.66;44.02
54248;BME280;40161;39.768;2.722;2022-08-04T07:25:55;101078.56;;;27.69;45.18
54248;BME280;40161;39.768;2.722;2022-08-04T07:28:26;101074.69;;;27.67;45.81
54248;BME280;40161;39.768;2.722;2022-08-04T07:30:53;101076.88;;;27.63;45.54
54248;BME280;40161;39.768;2.722;2022-08-04T07:33:20;101073.16;;;27.57;45.93
54248;BME280;40161;39.768;2.722;2022-08-04T07:36:20;101078.78;;;27.57;46.84
54248;BME280;40161;39.768;2.722;2022-08-04T07:38:45;101087.25;;;27.57;46.99
54248;BME280;40161;39.768;2.722;2022-08-04T07:41:11;101083.31;;;27.63;43.54
54248;BME280;40161;39.768;2.722;2022-08-04T07:43:37;101101.34;;;27.90;43.60
54248;BME280;40161;39.768;2.722;2022-08-04T07:46:03;101101.19;;;27.93;44.27
54248;BME280;40161;39.768;2.722;2022-08-04T07:48:29;101099.59;;;28.02;48.14
54248;BME280;40161;39.768;2.722;2022-08-04T07:50:55;101114.13;;;28.09;48.56
54248;BME280;40161;39.768;2.722;2022-08-04T07:53:25;101110.22;;;28.31;51.08
54248;BME280;40161;39.768;2.722;2022-08-04T07:55:52;101110.78;;;28.44;50.19
54248;BME280;40161;39.768;2.722;2022-08-04T07:58:24;101104.19;;;28.38;52.95
54248;BME280;40161;39.768;2.722;2022-08-04T08:00:56;101110.00;;;28.44;54.36
54248;BME280;40161;39.768;2.722;2022-08-04T08:03:22;101112.94;;;28.49;54.53
54248;BME280;40161;39.768;2.722;2022-08-04T08:08:55;101109.28;;;28.58;54.42
54248;BME280;40161;39.768;2.722;2022-08-04T08:11:21;101077.09;;;28.41;55.12
54248;BME280;40161;39.768;2.722;2022-08-04T08:13:47;101108.53;;;28.72;54.30
54248;BME280;40161;39.768;2.722;2022-08-04T08:16:13;101099.66;;;28.79;56.25
54248;BME280;40161;39.768;2.722;2022-08-04T08:18:39;101088.56;;;28.76;53.27
54248;BME280;40161;39.768;2.722;2022-08-04T08:21:04;101107.09;;;28.92;53.58
54248;BME280;40161;39.768;2.722;2022-08-04T08:23:33;101103.97;;;28.90;53.62
54248;BME280;40161;39.768;2.722;2022-08-04T08:25:59;101094.53;;;28.78;53.93
54248;BME280;40161;39.768;2.722;2022-08-04T08:28:25;101091.50;;;28.81;54.95
54248;BME280;40161;39.768;2.722;2022-08-04T08:30:51;101109.22;;;28.97;57.02
54248;BME280;40161;39.768;2.722;2022-08-04T08:33:17;101101.22;;;29.04;56.31
54248;BME280;40161;39.768;2.722;2022-08-04T08:38:42;101101.59;;;29.12;56.37
54248;BME280;40161;39.768;2.722;2022-08-04T08:52:25;101083.03;;;28.96;57.02
54248;BME280;40161;39.768;2.722;2022-08-04T08:58:34;101115.41;;;29.25;61.34
54248;BME280;40161;39.768;2.722;2022-08-04T09:01:11;101080.44;;;29.07;61.18
54248;BME280;40161;39.768;2.722;2022-08-04T09:12:44;101116.50;;;29.42;62.02
54248;BME280;40161;39.768;2.722;2022-08-04T09:15:17;101111.72;;;29.48;62.50
54248;BME280;40161;39.768;2.722;2022-08-04T09:17:47;101124.47;;;29.58;62.09
54248;BME280;40161;39.768;2.722;2022-08-04T09:26:03;101123.91;;;29.69;62.08
54248;BME280;40161;39.768;2.722;2022-08-04T09:28:41;101128.88;;;29.74;60.72
54248;BME280;40161;39.768;2.722;2022-08-04T09:31:12;101121.88;;;29.70;59.84
54248;BME280;40161;39.768;2.722;2022-08-04T09:33:53;101127.13;;;29.77;58.24
54248;BME280;40161;39.768;2.722;2022-08-04T09:36:52;101137.63;;;29.91;58.02
54248;BME280;40161;39.768;2.722;2022-08-04T09:39:39;101111.59;;;29.72;54.83
54248;BME280;40161;39.768;2.722;2022-08-04T09:42:22;101126.72;;;29.84;51.14
54248;BME280;40161;39.768;2.722;2022-08-04T09:45:11;101140.03;;;29.98;51.72
54248;BME280;40161;39.768;2.722;2022-08-04T09:48:05;101143.53;;;30.08;54.51
54248;BME280;40161;39.768;2.722;2022-08-04T09:50:52;101138.44;;;30.12;59.13
54248;BME280;40161;39.768;2.722;2022-08-04T10:00:09;101140.75;;;30.14;55.79
54248;BME280;40161;39.768;2.722;2022-08-04T10:02:58;101151.69;;;30.21;57.85
54248;BME280;40161;39.768;2.722;2022-08-04T10:05:48;101147.19;;;30.14;54.97
54248;BME280;40161;39.768;2.722;2022-08-04T10:11:30;101137.06;;;30.22;53.76
54248;BME280;40161;39.768;2.722;2022-08-04T10:14:12;101152.91;;;30.35;54.53
54248;BME280;40161;39.768;2.722;2022-08-04T10:19:27;101137.94;;;30.29;53.85
54248;BME280;40161;39.768;2.722;2022-08-04T10:22:14;101155.31;;;30.42;52.30
54248;BME280;40161;39.768;2.722;2022-08-04T10:27:53;101160.84;;;30.51;53.27
54248;BME280;40161;39.768;2.722;2022-08-04T10:30:19;101149.59;;;30.57;53.78
54248;BME280;40161;39.768;2.722;2022-08-04T10:33:02;101110.19;;;30.33;53.79
54248;BME280;40161;39.768;2.722;2022-08-04T10:35:34;101138.75;;;30.55;52.36
54248;BME280;40161;39.768;2.722;2022-08-04T10:40:57;101115.91;;;30.38;56.35
54248;BME280;40161;39.768;2.722;2022-08-04T10:46:16;101136.84;;;30.67;55.32
54248;BME280;40161;39.768;2.722;2022-08-04T10:48:57;101141.78;;;30.72;55.14
54248;BME280;40161;39.768;2.722;2022-08-04T10:53:55;101107.28;;;30.47;51.52
54248;BME280;40161;39.768;2.722;2022-08-04T10:56:33;101138.47;;;30.73;48.72
54248;BME280;40161;39.768;2.722;2022-08-04T10:59:07;101136.56;;;30.85;50.34
54248;BME280;40161;39.768;2.722;2022-08-04T11:01:38;101137.97;;;30.95;51.40
54248;BME280;40161;39.768;2.722;2022-08-04T11:04:24;101142.94;;;31.01;51.24
54248;BME280;40161;39.768;2.722;2022-08-04T11:06:51;101139.59;;;31.02;52.17
54248;BME280;40161;39.768;2.722;2022-08-04T11:09:19;101145.53;;;31.04;50.40
54248;BME280;40161;39.768;2.722;2022-08-04T11:11:54;101136.38;;;31.15;53.45
54248;BME280;40161;39.768;2.722;2022-08-04T11:14:26;101141.28;;;31.14;48.64
54248;BME280;40161;39.768;2.722;2022-08-04T11:20:11;101130.97;;;31.17;52.71
54248;BME280;40161;39.768;2.722;2022-08-04T11:22:47;101126.06;;;31.17;53.53
54248;BME280;40161;39.768;2.722;2022-08-04T11:25:21;101125.38;;;31.23;53.95
54248;BME280;40161;39.768;2.722;2022-08-04T11:28:13;101132.91;;;31.31;54.55
54248;BME280;40161;39.768;2.722;2022-08-04T11:30:56;101096.34;;;31.07;52.56
54248;BME280;40161;39.768;2.722;2022-08-04T11:36:37;101132.22;;;31.36;55.38
54248;BME280;40161;39.768;2.722;2022-08-04T11:39:13;101095.81;;;31.03;54.71
54248;BME280;40161;39.768;2.722;2022-08-04T11:41:47;101136.13;;;31.39;55.35
54248;BME280;40161;39.768;2.722;2022-08-04T11:44:46;101126.53;;;31.36;55.17
54248;BME280;40161;39.768;2.722;2022-08-04T11:47:27;101125.03;;;31.41;54.47
54248;BME280;40161;39.768;2.722;2022-08-04T11:50:07;101127.59;;;31.39;53.60
54248;BME280;40161;39.768;2.722;2022-08-04T11:52:34;101120.38;;;31.38;53.80
54248;BME280;40161;39.768;2.722;2022-08-04T11:55:06;101119.75;;;31.28;53.95
54248;BME280;40161;39.768;2.722;2022-08-04T12:07:15;101128.47;;;31.51;52.36
54248;BME280;40161;39.768;2.722;2022-08-04T12:12:40;101106.56;;;31.51;52.47
54248;BME280;40161;39.768;2.722;2022-08-04T12:15:30;101126.31;;;31.72;52.58
54248;BME280;40161;39.768;2.722;2022-08-04T12:18:13;101124.00;;;31.70;51.79
54248;BME280;40161;39.768;2.722;2022-08-04T12:20:47;101120.63;;;31.72;51.96
54248;BME280;40161;39.768;2.722;2022-08-04T12:23:19;101123.22;;;31.75;52.75
54248;BME280;40161;39.768;2.722;2022-08-04T12:25:47;101136.41;;;31.78;52.14
54248;BME280;40161;39.768;2.722;2022-08-04T12:28:20;101134.13;;;31.82;52.31
54248;BME280;40161;39.768;2.722;2022-08-04T12:30:54;101132.06;;;31.83;52.61
54248;BME280;40161;39.768;2.722;2022-08-04T12:33:33;101103.03;;;31.62;53.00
54248;BME280;40161;39.768;2.722;2022-08-04T12:36:08;101131.34;;;31.88;52.71
54248;BME280;40161;39.768;2.722;2022-08-04T12:38:53;101106.22;;;31.75;52.64
54248;BME280;40161;39.768;2.722;2022-08-04T12:44:51;101087.59;;;31.68;52.64
54248;BME280;40161;39.768;2.722;2022-08-04T12:47:27;101119.94;;;31.82;53.03
54248;BME280;40161;39.768;2.722;2022-08-04T12:49:56;101126.03;;;32.01;53.19
54248;BME280;40161;39.768;2.722;2022-08-04T12:52:24;101120.59;;;32.03;51.94
54248;BME280;40161;39.768;2.722;2022-08-04T12:54:52;101083.13;;;31.88;51.81
54248;BME280;40161;39.768;2.722;2022-08-04T12:57:20;101117.84;;;32.14;52.11
54248;BME280;40161;39.768;2.722;2022-08-04T13:03:13;101081.78;;;31.83;52.26
54248;BME280;40161;39.768;2.722;2022-08-04T13:09:05;101106.50;;;31.77;52.89
54248;BME280;40161;39.768;2.722;2022-08-04T13:11:53;101113.38;;;31.65;52.94
54248;BME280;40161;39.768;2.722;2022-08-04T13:14:20;101100.81;;;31.40;53.17
54248;BME280;40161;39.768;2.722;2022-08-04T13:16:55;101126.63;;;31.48;54.15
54248;BME280;40161;39.768;2.722;2022-08-04T13:19:21;101118.09;;;31.42;54.07
54248;BME280;40161;39.768;2.722;2022-08-04T13:21:47;101109.13;;;31.49;54.36
54248;BME280;40161;39.768;2.722;2022-08-04T13:24:15;101117.44;;;31.58;53.03
54248;BME280;40161;39.768;2.722;2022-08-04T13:29:15;101112.91;;;31.72;53.27
54248;BME280;40161;39.768;2.722;2022-08-04T13:31:43;101104.44;;;31.78;52.92
54248;BME280;40161;39.768;2.722;2022-08-04T13:34:10;101102.66;;;31.80;52.58
54248;BME280;40161;39.768;2.722;2022-08-04T13:36:36;101106.13;;;31.96;52.63
54248;BME280;40161;39.768;2.722;2022-08-04T13:39:07;101109.00;;;32.07;52.35
54248;BME280;40161;39.768;2.722;2022-08-04T13:41:35;101102.31;;;32.10;52.20
54248;BME280;40161;39.768;2.722;2022-08-04T13:44:04;101098.22;;;32.17;52.05
54248;BME280;40161;39.768;2.722;2022-08-04T13:46:38;101099.53;;;32.15;51.67
54248;BME280;40161;39.768;2.722;2022-08-04T13:49:09;101104.72;;;32.23;51.54
54248;BME280;40161;39.768;2.722;2022-08-04T13:51:35;101093.13;;;32.26;51.23
54248;BME280;40161;39.768;2.722;2022-08-04T13:54:02;101049.41;;;32.01;51.35
54248;BME280;40161;39.768;2.722;2022-08-04T13:56:32;101099.59;;;32.38;51.32
54248;BME280;40161;39.768;2.722;2022-08-04T13:59:02;101088.50;;;32.29;51.69
54248;BME280;40161;39.768;2.722;2022-08-04T14:01:31;101072.72;;;32.28;51.74
54248;BME280;40161;39.768;2.722;2022-08-04T14:04:03;101092.38;;;32.37;51.88
54248;BME280;40161;39.768;2.722;2022-08-04T14:06:35;101075.09;;;32.35;51.50
54248;BME280;40161;39.768;2.722;2022-08-04T14:09:15;101067.06;;;32.33;51.92
54248;BME280;40161;39.768;2.722;2022-08-04T14:11:43;101045.06;;;32.11;51.32
54248;BME280;40161;39.768;2.722;2022-08-04T14:14:21;101066.31;;;32.33;51.61
54248;BME280;40161;39.768;2.722;2022-08-04T14:25:04;101006.91;;;32.18;51.33
54248;BME280;40161;39.768;2.722;2022-08-04T14:27:44;101020.09;;;32.32;50.81
54248;BME280;40161;39.768;2.722;2022-08-04T14:30:31;101050.13;;;32.50;51.20
54248;BME280;40161;39.768;2.722;2022-08-04T14:33:06;101047.06;;;32.59;50.63
54248;BME280;40161;39.768;2.722;2022-08-04T14:35:34;101043.44;;;32.65;50.95
54248;BME280;40161;39.768;2.722;2022-08-04T14:38:01;101013.19;;;32.45;50.53
54248;BME280;40161;39.768;2.722;2022-08-04T14:40:30;101037.75;;;32.65;50.66
54248;BME280;40161;39.768;2.722;2022-08-04T14:42:57;101038.28;;;32.63;50.79
54248;BME280;40161;39.768;2.722;2022-08-04T14:45:34;101033.38;;;32.64;50.18
54248;BME280;40161;39.768;2.722;2022-08-04T14:48:05;101020.94;;;32.50;51.10
54248;BME280;40161;39.768;2.722;2022-08-04T14:53:16;101028.72;;;32.60;50.86
54248;BME280;40161;39.768;2.722;2022-08-04T14:55:50;101038.00;;;32.61;50.70
54248;BME280;40161;39.768;2.722;2022-08-04T14:58:18;101032.06;;;32.53;50.63
54248;BME280;40161;39.768;2.722;2022-08-04T15:00:44;100991.22;;;32.39;50.74
54248;BME280;40161;39.768;2.722;2022-08-04T15:03:10;100976.25;;;32.39;50.26
54248;BME280;40161;39.768;2.722;2022-08-04T15:05:40;101022.00;;;32.58;50.37
54248;BME280;40161;39.768;2.722;2022-08-04T15:08:06;101020.19;;;32.60;50.49
54248;BME280;40161;39.768;2.722;2022-08-04T15:10:32;101020.69;;;32.48;50.80
54248;BME280;40161;39.768;2.722;2022-08-04T15:13:00;101027.94;;;32.49;50.91
54248;BME280;40161;39.768;2.722;2022-08-04T15:15:27;100989.38;;;32.25;50.83
54248;BME280;40161;39.768;2.722;2022-08-04T15:17:53;101007.00;;;32.46;50.92
54248;BME280;40161;39.768;2.722;2022-08-04T15:20:20;101029.97;;;32.48;51.07
54248;BME280;40161;39.768;2.722;2022-08-04T15:26:11;101032.81;;;32.43;51.09
54248;BME280;40161;39.768;2.722;2022-08-04T15:28:40;101017.84;;;32.48;50.99
54248;BME280;40161;39.768;2.722;2022-08-04T15:31:09;101023.28;;;32.46;51.19
54248;BME280;40161;39.768;2.722;2022-08-04T15:33:38;101015.00;;;32.48;51.63
54248;BME280;40161;39.768;2.722;2022-08-04T15:39:33;101031.22;;;32.36;52.41
54248;BME280;40161;39.768;2.722;2022-08-04T15:45:22;101024.75;;;32.35;52.80
54248;BME280;40161;39.768;2.722;2022-08-04T15:53:22;101017.25;;;32.32;52.50
54248;BME280;40161;39.768;2.722;2022-08-04T15:55:48;100993.69;;;32.04;52.87
54248;BME280;40161;39.768;2.722;2022-08-04T15:58:15;101013.34;;;32.19;52.75
54248;BME280;40161;39.768;2.722;2022-08-04T16:03:48;101016.19;;;32.19;53.13
54248;BME280;40161;39.768;2.722;2022-08-04T16:19:26;101000.53;;;31.80;52.89
54248;BME280;40161;39.768;2.722;2022-08-04T16:22:00;100976.19;;;31.68;52.81
54248;BME280;40161;39.768;2.722;2022-08-04T16:24:37;101016.31;;;31.92;52.85
54248;BME280;40161;39.768;2.722;2022-08-04T16:27:04;101006.94;;;31.75;53.97
54248;BME280;40161;39.768;2.722;2022-08-04T16:29:39;101007.75;;;31.81;53.53
54248;BME280;40161;39.768;2.722;2022-08-04T16:37:04;100999.75;;;31.80;54.19
54248;BME280;40161;39.768;2.722;2022-08-04T16:39:30;100953.91;;;31.44;53.98
54248;BME280;40161;39.768;2.722;2022-08-04T16:41:56;100992.97;;;31.72;53.93
54248;BME280;40161;39.768;2.722;2022-08-04T16:44:28;100963.78;;;31.60;53.87
54248;BME280;40161;39.768;2.722;2022-08-04T16:46:55;100962.94;;;31.48;54.13
54248;BME280;40161;39.768;2.722;2022-08-04T16:49:21;100966.09;;;31.56;54.22
54248;BME280;40161;39.768;2.722;2022-08-04T16:51:48;100946.94;;;31.39;54.15
54248;BME280;40161;39.768;2.722;2022-08-04T16:54:14;100967.59;;;31.51;54.79
54248;BME280;40161;39.768;2.722;2022-08-04T16:56:40;100952.66;;;31.51;54.32
54248;BME280;40161;39.768;2.722;2022-08-04T16:59:11;100986.47;;;31.60;54.40
54248;BME280;40161;39.768;2.722;2022-08-04T17:01:44;100978.75;;;31.60;54.45
54248;BME280;40161;39.768;2.722;2022-08-04T17:04:11;100978.72;;;31.55;54.82
54248;BME280;40161;39.768;2.722;2022-08-04T17:06:40;100968.63;;;31.48;54.80
54248;BME280;40161;39.768;2.722;2022-08-04T17:12:28;100963.19;;;31.44;54.92
54248;BME280;40161;39.768;2.722;2022-08-04T17:14:53;100959.84;;;31.46;55.37
54248;BME280;40161;39.768;2.722;2022-08-04T17:17:21;100964.19;;;31.41;55.40
54248;BME280;40161;39.768;2.722;2022-08-04T17:19:51;100961.25;;;31.30;55.82
54248;BME280;40161;39.768;2.722;2022-08-04T17:22:25;100959.44;;;31.27;55.63
54248;BME280;40161;39.768;2.722;2022-08-04T17:24:52;100960.19;;;31.22;56.26
54248;BME280;40161;39.768;2.722;2022-08-04T17:27:17;100973.03;;;31.17;56.75
54248;BME280;40161;39.768;2.722;2022-08-04T17:29:43;100969.09;;;31.09;57.05
54248;BME280;40161;39.768;2.722;2022-08-04T17:32:12;100985.94;;;31.18;57.27
54248;BME280;40161;39.768;2.722;2022-08-04T17:34:38;100973.72;;;31.07;57.31
54248;BME280;40161;39.768;2.722;2022-08-04T17:37:03;100979.66;;;31.09;57.32
54248;BME280;40161;39.768;2.722;2022-08-04T17:39:29;100978.59;;;31.01;56.81
54248;BME280;40161;39.768;2.722;2022-08-04T17:41:58;100975.47;;;30.98;57.40
54248;BME280;40161;39.768;2.722;2022-08-04T17:44:34;100980.63;;;31.00;57.55
54248;BME280;40161;39.768;2.722;2022-08-04T17:47:21;100988.88;;;30.98;56.92
54248;BME280;40161;39.768;2.722;2022-08-04T17:49:47;100982.44;;;30.97;57.22
54248;BME280;40161;39.768;2.722;2022-08-04T17:55:41;101001.44;;;30.91;57.80
54248;BME280;40161;39.768;2.722;2022-08-04T17:58:21;100959.97;;;30.68;57.79
54248;BME280;40161;39.768;2.722;2022-08-04T18:01:02;100987.44;;;30.82;57.63
54248;BME280;40161;39.768;2.722;2022-08-04T18:03:28;100993.88;;;30.83;58.12
54248;BME280;40161;39.768;2.722;2022-08-04T18:06:10;100993.38;;;30.84;57.71
54248;BME280;40161;39.768;2.722;2022-08-04T18:08:36;100993.84;;;30.77;58.15
54248;BME280;40161;39.768;2.722;2022-08-04T18:11:05;100992.69;;;30.69;59.00
54248;BME280;40161;39.768;2.722;2022-08-04T18:13:32;100983.56;;;30.59;59.01
54248;BME280;40161;39.768;2.722;2022-08-04T18:16:02;100988.25;;;30.62;59.36
54248;BME280;40161;39.768;2.722;2022-08-04T18:18:28;100998.47;;;30.54;59.26
54248;BME280;40161;39.768;2.722;2022-08-04T18:21:01;100963.31;;;30.40;59.54
54248;BME280;40161;39.768;2.722;2022-08-04T18:23:29;100997.41;;;30.51;59.43
54248;BME280;40161;39.768;2.722;2022-08-04T18:25:57;100965.19;;;30.23;59.62
54248;BME280;40161;39.768;2.722;2022-08-04T18:28:24;100970.50;;;30.15;60.12
54248;BME280;40161;39.768;2.722;2022-08-04T18:30:49;100996.66;;;30.31;60.26
54248;BME280;40161;39.768;2.722;2022-08-04T18:33:15;101005.44;;;30.33;60.31
54248;BME280;40161;39.768;2.722;2022-08-04T18:35:45;100996.63;;;30.25;60.14
54248;BME280;40161;39.768;2.722;2022-08-04T18:38:10;100988.88;;;30.05;60.16
54248;BME280;40161;39.768;2.722;2022-08-04T18:40:36;101014.00;;;30.18;60.60
54248;BME280;40161;39.768;2.722;2022-08-04T18:43:01;101017.97;;;30.06;60.52
54248;BME280;40161;39.768;2.722;2022-08-04T18:45:29;101028.28;;;30.09;60.58
54248;BME280;40161;39.768;2.722;2022-08-04T18:47:55;101020.91;;;29.96;60.34
54248;BME280;40161;39.768;2.722;2022-08-04T18:50:20;101039.31;;;30.07;60.18
54248;BME280;40161;39.768;2.722;2022-08-04T18:52:46;101052.13;;;30.02;60.64
54248;BME280;40161;39.768;2.722;2022-08-04T18:55:13;101047.88;;;29.92;61.07